sensor_id;sensor_type;location;lat;lon;timestamp;P1;durP1;ratioP1;P2;durP2;ratioP2
20589;SDS011;10453;50.810;12.540;2023-02-26T00:01:57;6.30;;;2.67;;
20589;SDS011;10453;50.810;12.540;2023-02-26T00:06:18;4.18;;;2.00;;
20589;SDS011;10453;50.810;12.540;2023-02-26T00:10:35;3.70;;;2.50;;
20589;SDS011;10453;50.810;12.540;2023-02-26T00:14:52;5.97;;;2.50;;
20589;SDS011;10453;50.810;12.540;2023-02-26T00:19:10;4.45;;;2.13;;
20589;SDS011;10453;50.810;12.540;2023-02-26T00:23:27;5.10;;;2.20;;
20589;SDS011;10453;50.810;12.540;2023-02-26T00:27:45;6.07;;;2.37;;
20589;SDS011;10453;50.810;12.540;2023-02-26T00:32:02;5.40;;;2.78;;
20589;SDS011;10453;50.810;12.540;2023-02-26T00:40:44;8.55;;;3.08;;
20589;SDS011;10453;50.810;12.540;2023-02-26T00:45:03;6.47;;;2.90;;
20589;SDS011;10453;50.810;12.540;2023-02-26T00:54:19;6.43;;;3.53;;
20589;SDS011;10453;50.810;12.540;2023-02-26T00:58:38;8.18;;;4.30;;
20589;SDS011;10453;50.810;12.540;2023-02-26T01:02:55;12.97;;;3.67;;
20589;SDS011;10453;50.810;12.540;2023-02-26T01:07:13;9.82;;;4.40;;
20589;SDS011;10453;50.810;12.540;2023-02-26T01:11:32;9.35;;;4.28;;
20589;SDS011;10453;50.810;12.540;2023-02-26T01:15:52;12.50;;;4.10;;
20589;SDS011;10453;50.810;12.540;2023-02-26T01:20:19;10.18;;;4.60;;
20589;SDS011;10453;50.810;12.540;2023-02-26T01:24:44;10.27;;;5.00;;
20589;SDS011;10453;50.810;12.540;2023-02-26T01:29:06;10.70;;;4.82;;
20589;SDS011;10453;50.810;12.540;2023-02-26T01:33:27;12.73;;;5.00;;
20589;SDS011;10453;50.810;12.540;2023-02-26T01:38:00;8.02;;;4.30;;
20589;SDS011;10453;50.810;12.540;2023-02-26T01:42:24;9.82;;;5.25;;
20589;SDS011;10453;50.810;12.540;2023-02-26T01:46:51;11.70;;;5.00;;
20589;SDS011;10453;50.810;12.540;2023-02-26T01:51:17;8.15;;;4.60;;
20589;SDS011;10453;50.810;12.540;2023-02-26T01:55:56;11.70;;;5.28;;
20589;SDS011;10453;50.810;12.540;2023-02-26T02:00:17;9.00;;;5.00;;
20589;SDS011;10453;50.810;12.540;2023-02-26T02:04:34;9.05;;;5.43;;
20589;SDS011;10453;50.810;12.540;2023-02-26T02:08:53;11.70;;;5.47;;
20589;SDS011;10453;50.810;12.540;2023-02-26T02:18:09;10.85;;;5.57;;
20589;SDS011;10453;50.810;12.540;2023-02-26T02:27:28;9.32;;;5.43;;
20589;SDS011;10453;50.810;12.540;2023-02-26T02:45:42;11.70;;;6.97;;
20589;SDS011;10453;50.810;12.540;2023-02-26T02:54:58;12.60;;;6.82;;
20589;SDS011;10453;50.810;12.540;2023-02-26T02:59:31;12.20;;;6.97;;
20589;SDS011;10453;50.810;12.540;2023-02-26T03:03:54;12.30;;;7.00;;
20589;SDS011;10453;50.810;12.540;2023-02-26T03:08:26;12.57;;;6.53;;
20589;SDS011;10453;50.810;12.540;2023-02-26T03:12:45;8.23;;;6.13;;
20589;SDS011;10453;50.810;12.540;2023-02-26T03:26:09;8.57;;;5.60;;
20589;SDS011;10453;50.810;12.540;2023-02-26T03:30:46;10.82;;;6.30;;
20589;SDS011;10453;50.810;12.540;2023-02-26T03:39:32;10.70;;;5.68;;
20589;SDS011;10453;50.810;12.540;2023-02-26T03:44:07;8.07;;;5.20;;
20589;SDS011;10453;50.810;12.540;2023-02-26T03:48:29;9.35;;;5.63;;
20589;SDS011;10453;50.810;12.540;2023-02-26T03:52:48;9.27;;;5.93;;
20589;SDS011;10453;50.810;12.540;2023-02-26T03:57:07;8.05;;;5.32;;
20589;SDS011;10453;50.810;12.540;2023-02-26T04:01:39;7.78;;;4.70;;
20589;SDS011;10453;50.810;12.540;2023-02-26T04:06:01;12.73;;;4.82;;
20589;SDS011;10453;50.810;12.540;2023-02-26T04:14:40;4.95;;;4.25;;
20589;SDS011;10453;50.810;12.540;2023-02-26T04:18:57;10.07;;;4.00;;
20589;SDS011;10453;50.810;12.540;2023-02-26T04:23:14;9.13;;;4.10;;
20589;SDS011;10453;50.810;12.540;2023-02-26T04:27:32;6.83;;;4.20;;
20589;SDS011;10453;50.810;12.540;2023-02-26T04:31:49;8.17;;;3.77;;
20589;SDS011;10453;50.810;12.540;2023-02-26T04:36:06;8.88;;;4.40;;
20589;SDS011;10453;50.810;12.540;2023-02-26T04:44:41;5.80;;;3.85;;
20589;SDS011;10453;50.810;12.540;2023-02-26T04:48:58;7.63;;;4.00;;
20589;SDS011;10453;50.810;12.540;2023-02-26T04:53:16;6.13;;;3.95;;
20589;SDS011;10453;50.810;12.540;2023-02-26T04:57:33;7.87;;;3.93;;
20589;SDS011;10453;50.810;12.540;2023-02-26T05:01:50;7.68;;;3.92;;
20589;SDS011;10453;50.810;12.540;2023-02-26T05:06:07;5.60;;;3.83;;
20589;SDS011;10453;50.810;12.540;2023-02-26T05:10:25;8.20;;;3.90;;
20589;SDS011;10453;50.810;12.540;2023-02-26T05:14:42;5.80;;;3.57;;
20589;SDS011;10453;50.810;12.540;2023-02-26T05:18:59;6.93;;;3.70;;
20589;SDS011;10453;50.810;12.540;2023-02-26T05:23:16;7.40;;;4.63;;
20589;SDS011;10453;50.810;12.540;2023-02-26T05:27:33;10.90;;;4.70;;
20589;SDS011;10453;50.810;12.540;2023-02-26T05:31:50;7.03;;;4.03;;
20589;SDS011;10453;50.810;12.540;2023-02-26T05:36:08;9.07;;;4.00;;
20589;SDS011;10453;50.810;12.540;2023-02-26T05:44:43;13.65;;;5.03;;
20589;SDS011;10453;50.810;12.540;2023-02-26T05:49:00;11.73;;;4.93;;
20589;SDS011;10453;50.810;12.540;2023-02-26T05:53:17;9.25;;;4.93;;
20589;SDS011;10453;50.810;12.540;2023-02-26T05:57:34;8.85;;;5.10;;
20589;SDS011;10453;50.810;12.540;2023-02-26T06:01:51;11.40;;;5.33;;
20589;SDS011;10453;50.810;12.540;2023-02-26T06:06:09;12.60;;;4.83;;
20589;SDS011;10453;50.810;12.540;2023-02-26T06:10:28;6.90;;;4.28;;
20589;SDS011;10453;50.810;12.540;2023-02-26T06:14:45;7.72;;;4.95;;
20589;SDS011;10453;50.810;12.540;2023-02-26T06:19:02;5.97;;;4.13;;
20589;SDS011;10453;50.810;12.540;2023-02-26T06:23:19;6.80;;;4.40;;
20589;SDS011;10453;50.810;12.540;2023-02-26T06:27:36;7.13;;;4.50;;
20589;SDS011;10453;50.810;12.540;2023-02-26T06:31:53;9.90;;;5.63;;
20589;SDS011;10453;50.810;12.540;2023-02-26T06:36:11;7.90;;;4.83;;
20589;SDS011;10453;50.810;12.540;2023-02-26T06:40:28;9.63;;;4.93;;
20589;SDS011;10453;50.810;12.540;2023-02-26T06:44:46;11.80;;;5.53;;
20589;SDS011;10453;50.810;12.540;2023-02-26T06:49:03;12.57;;;5.78;;
20589;SDS011;10453;50.810;12.540;2023-02-26T06:53:21;11.68;;;5.63;;
20589;SDS011;10453;50.810;12.540;2023-02-26T06:57:38;12.73;;;5.57;;
20589;SDS011;10453;50.810;12.540;2023-02-26T07:01:55;8.20;;;5.20;;
20589;SDS011;10453;50.810;12.540;2023-02-26T07:06:13;8.38;;;5.00;;
20589;SDS011;10453;50.810;12.540;2023-02-26T07:10:43;6.68;;;4.78;;
20589;SDS011;10453;50.810;12.540;2023-02-26T07:15:03;9.27;;;5.13;;
20589;SDS011;10453;50.810;12.540;2023-02-26T07:19:22;9.48;;;4.38;;
20589;SDS011;10453;50.810;12.540;2023-02-26T07:23:39;10.13;;;5.35;;
20589;SDS011;10453;50.810;12.540;2023-02-26T07:27:56;9.73;;;4.85;;
20589;SDS011;10453;50.810;12.540;2023-02-26T07:32:15;14.57;;;5.90;;
20589;SDS011;10453;50.810;12.540;2023-02-26T07:36:35;10.50;;;4.53;;
20589;SDS011;10453;50.810;12.540;2023-02-26T07:40:55;11.60;;;5.15;;
20589;SDS011;10453;50.810;12.540;2023-02-26T07:45:13;11.00;;;4.32;;
20589;SDS011;10453;50.810;12.540;2023-02-26T07:49:34;5.90;;;4.60;;
20589;SDS011;10453;50.810;12.540;2023-02-26T07:53:51;6.13;;;4.27;;
20589;SDS011;10453;50.810;12.540;2023-02-26T07:58:08;6.75;;;4.45;;
20589;SDS011;10453;50.810;12.540;2023-02-26T08:02:25;9.77;;;4.45;;
20589;SDS011;10453;50.810;12.540;2023-02-26T08:06:43;10.93;;;3.80;;
20589;SDS011;10453;50.810;12.540;2023-02-26T08:11:00;6.43;;;3.70;;
20589;SDS011;10453;50.810;12.540;2023-02-26T08:15:17;8.73;;;3.83;;
20589;SDS011;10453;50.810;12.540;2023-02-26T08:19:35;8.63;;;4.00;;
20589;SDS011;10453;50.810;12.540;2023-02-26T08:23:52;7.83;;;3.83;;
20589;SDS011;10453;50.810;12.540;2023-02-26T08:28:10;8.20;;;3.80;;
20589;SDS011;10453;50.810;12.540;2023-02-26T08:32:27;9.40;;;4.40;;
20589;SDS011;10453;50.810;12.540;2023-02-26T08:36:45;7.97;;;4.10;;
20589;SDS011;10453;50.810;12.540;2023-02-26T08:41:02;10.10;;;3.80;;
20589;SDS011;10453;50.810;12.540;2023-02-26T08:45:19;10.53;;;4.63;;
20589;SDS011;10453;50.810;12.540;2023-02-26T08:49:39;7.38;;;4.40;;
20589;SDS011;10453;50.810;12.540;2023-02-26T08:53:56;8.23;;;3.70;;
20589;SDS011;10453;50.810;12.540;2023-02-26T08:58:13;9.38;;;3.95;;
20589;SDS011;10453;50.810;12.540;2023-02-26T09:02:30;9.57;;;4.90;;
20589;SDS011;10453;50.810;12.540;2023-02-26T09:06:47;9.52;;;4.07;;
20589;SDS011;10453;50.810;12.540;2023-02-26T09:11:05;10.18;;;5.00;;
20589;SDS011;10453;50.810;12.540;2023-02-26T09:15:23;6.20;;;2.67;;
20589;SDS011;10453;50.810;12.540;2023-02-26T09:19:40;6.00;;;2.13;;
20589;SDS011;10453;50.810;12.540;2023-02-26T09:23:57;7.05;;;2.78;;
20589;SDS011;10453;50.810;12.540;2023-02-26T09:28:14;8.98;;;3.40;;
20589;SDS011;10453;50.810;12.540;2023-02-26T09:32:31;7.55;;;3.42;;
20589;SDS011;10453;50.810;12.540;2023-02-26T09:36:49;8.53;;;3.13;;
20589;SDS011;10453;50.810;12.540;2023-02-26T09:41:16;7.60;;;2.83;;
20589;SDS011;10453;50.810;12.540;2023-02-26T09:45:36;6.88;;;2.20;;
20589;SDS011;10453;50.810;12.540;2023-02-26T09:50:19;6.68;;;2.45;;
20589;SDS011;10453;50.810;12.540;2023-02-26T09:54:41;4.53;;;2.08;;
20589;SDS011;10453;50.810;12.540;2023-02-26T09:59:02;4.35;;;2.10;;
20589;SDS011;10453;50.810;12.540;2023-02-26T10:08:05;9.38;;;2.95;;
20589;SDS011;10453;50.810;12.540;2023-02-26T10:12:30;7.30;;;3.47;;
20589;SDS011;10453;50.810;12.540;2023-02-26T10:16:52;6.00;;;2.88;;
20589;SDS011;10453;50.810;12.540;2023-02-26T10:21:14;5.20;;;3.10;;
20589;SDS011;10453;50.810;12.540;2023-02-26T10:25:41;10.68;;;2.83;;
20589;SDS011;10453;50.810;12.540;2023-02-26T10:30:57;2.80;;;2.00;;
20589;SDS011;10453;50.810;12.540;2023-02-26T10:35:04;5.85;;;2.05;;
20589;SDS011;10453;50.810;12.540;2023-02-26T10:43:48;5.93;;;3.60;;
20589;SDS011;10453;50.810;12.540;2023-02-26T10:48:18;4.03;;;2.40;;
20589;SDS011;10453;50.810;12.540;2023-02-26T10:52:42;4.40;;;2.15;;
20589;SDS011;10453;50.810;12.540;2023-02-26T10:57:01;6.60;;;2.17;;
20589;SDS011;10453;50.810;12.540;2023-02-26T11:01:20;5.63;;;2.30;;
20589;SDS011;10453;50.810;12.540;2023-02-26T11:05:40;6.13;;;2.65;;
20589;SDS011;10453;50.810;12.540;2023-02-26T11:09:57;6.60;;;2.63;;
20589;SDS011;10453;50.810;12.540;2023-02-26T11:14:15;5.53;;;2.95;;
20589;SDS011;10453;50.810;12.540;2023-02-26T11:18:40;6.53;;;2.30;;
20589;SDS011;10453;50.810;12.540;2023-02-26T11:23:00;6.80;;;2.58;;
20589;SDS011;10453;50.810;12.540;2023-02-26T11:27:20;4.00;;;2.30;;
20589;SDS011;10453;50.810;12.540;2023-02-26T11:31:47;7.05;;;2.88;;
20589;SDS011;10453;50.810;12.540;2023-02-26T11:36:09;5.22;;;1.90;;
20589;SDS011;10453;50.810;12.540;2023-02-26T11:40:34;7.53;;;2.17;;
20589;SDS011;10453;50.810;12.540;2023-02-26T11:44:55;7.13;;;2.20;;
20589;SDS011;10453;50.810;12.540;2023-02-26T11:49:14;6.32;;;1.90;;
20589;SDS011;10453;50.810;12.540;2023-02-26T11:53:40;3.63;;;2.22;;
20589;SDS011;10453;50.810;12.540;2023-02-26T11:57:59;4.88;;;1.90;;
20589;SDS011;10453;50.810;12.540;2023-02-26T12:02:18;6.45;;;2.40;;
20589;SDS011;10453;50.810;12.540;2023-02-26T12:06:37;5.55;;;2.03;;
20589;SDS011;10453;50.810;12.540;2023-02-26T12:10:59;6.43;;;1.93;;
20589;SDS011;10453;50.810;12.540;2023-02-26T12:15:47;5.47;;;2.40;;
20589;SDS011;10453;50.810;12.540;2023-02-26T12:20:31;4.43;;;1.90;;
20589;SDS011;10453;50.810;12.540;2023-02-26T12:29:46;6.78;;;2.67;;
20589;SDS011;10453;50.810;12.540;2023-02-26T12:34:20;5.45;;;1.80;;
20589;SDS011;10453;50.810;12.540;2023-02-26T12:39:07;3.08;;;1.80;;
20589;SDS011;10453;50.810;12.540;2023-02-26T12:43:48;6.75;;;2.20;;
20589;SDS011;10453;50.810;12.540;2023-02-26T12:48:13;5.38;;;2.50;;
20589;SDS011;10453;50.810;12.540;2023-02-26T12:52:54;3.50;;;2.22;;
20589;SDS011;10453;50.810;12.540;2023-02-26T13:02:06;4.38;;;2.15;;
20589;SDS011;10453;50.810;12.540;2023-02-26T13:11:20;4.60;;;2.42;;
20589;SDS011;10453;50.810;12.540;2023-02-26T13:20:33;7.82;;;2.10;;
20589;SDS011;10453;50.810;12.540;2023-02-26T13:29:32;5.65;;;2.20;;
20589;SDS011;10453;50.810;12.540;2023-02-26T13:33:57;5.18;;;2.53;;
20589;SDS011;10453;50.810;12.540;2023-02-26T13:38:23;5.93;;;2.40;;
20589;SDS011;10453;50.810;12.540;2023-02-26T13:43:21;11.68;;;5.78;;
20589;SDS011;10453;50.810;12.540;2023-02-26T13:47:53;5.78;;;2.35;;
20589;SDS011;10453;50.810;12.540;2023-02-26T13:52:51;4.15;;;2.03;;
20589;SDS011;10453;50.810;12.540;2023-02-26T14:06:41;4.15;;;1.92;;
20589;SDS011;10453;50.810;12.540;2023-02-26T14:11:02;5.85;;;2.35;;
20589;SDS011;10453;50.810;12.540;2023-02-26T14:15:41;5.15;;;2.00;;
20589;SDS011;10453;50.810;12.540;2023-02-26T14:24:38;3.05;;;1.80;;
20589;SDS011;10453;50.810;12.540;2023-02-26T14:33:26;5.93;;;1.95;;
20589;SDS011;10453;50.810;12.540;2023-02-26T14:37:48;2.85;;;1.70;;
20589;SDS011;10453;50.810;12.540;2023-02-26T14:42:19;4.55;;;1.80;;
20589;SDS011;10453;50.810;12.540;2023-02-26T14:46:39;4.63;;;1.95;;
20589;SDS011;10453;50.810;12.540;2023-02-26T14:55:54;5.05;;;2.60;;
20589;SDS011;10453;50.810;12.540;2023-02-26T15:09:44;5.57;;;2.80;;
20589;SDS011;10453;50.810;12.540;2023-02-26T15:19:08;5.32;;;2.67;;
20589;SDS011;10453;50.810;12.540;2023-02-26T15:28:30;5.50;;;2.50;;
20589;SDS011;10453;50.810;12.540;2023-02-26T15:33:01;5.60;;;2.65;;
20589;SDS011;10453;50.810;12.540;2023-02-26T15:37:21;6.53;;;3.28;;
20589;SDS011;10453;50.810;12.540;2023-02-26T15:41:42;5.07;;;3.08;;
20589;SDS011;10453;50.810;12.540;2023-02-26T15:46:01;6.40;;;3.17;;
20589;SDS011;10453;50.810;12.540;2023-02-26T15:50:19;7.70;;;2.42;;
20589;SDS011;10453;50.810;12.540;2023-02-26T15:54:44;3.42;;;2.10;;
20589;SDS011;10453;50.810;12.540;2023-02-26T15:59:10;3.80;;;1.80;;
20589;SDS011;10453;50.810;12.540;2023-02-26T16:03:33;2.25;;;1.42;;
20589;SDS011;10453;50.810;12.540;2023-02-26T16:07:53;9.15;;;2.45;;
20589;SDS011;10453;50.810;12.540;2023-02-26T16:12:15;5.20;;;1.85;;
20589;SDS011;10453;50.810;12.540;2023-02-26T16:16:43;5.57;;;1.70;;
20589;SDS011;10453;50.810;12.540;2023-02-26T16:21:02;16.40;;;8.18;;
20589;SDS011;10453;50.810;12.540;2023-02-26T16:26:08;17.50;;;9.02;;
20589;SDS011;10453;50.810;12.540;2023-02-26T16:30:16;11.02;;;5.93;;
20589;SDS011;10453;50.810;12.540;2023-02-26T16:34:42;11.57;;;7.00;;
20589;SDS011;10453;50.810;12.540;2023-02-26T16:39:22;7.85;;;4.28;;
20589;SDS011;10453;50.810;12.540;2023-02-26T16:43:48;8.25;;;4.68;;
20589;SDS011;10453;50.810;12.540;2023-02-26T16:48:17;11.45;;;4.40;;
20589;SDS011;10453;50.810;12.540;2023-02-26T16:52:51;9.25;;;3.63;;
20589;SDS011;10453;50.810;12.540;2023-02-26T16:57:19;12.02;;;4.13;;
20589;SDS011;10453;50.810;12.540;2023-02-26T17:06:14;10.35;;;5.65;;
20589;SDS011;10453;50.810;12.540;2023-02-26T17:10:38;13.00;;;5.70;;
20589;SDS011;10453;50.810;12.540;2023-02-26T17:15:27;15.70;;;7.82;;
20589;SDS011;10453;50.810;12.540;2023-02-26T17:19:47;16.77;;;7.32;;
20589;SDS011;10453;50.810;12.540;2023-02-26T17:24:05;17.77;;;8.40;;
20589;SDS011;10453;50.810;12.540;2023-02-26T17:28:24;10.02;;;5.97;;
20589;SDS011;10453;50.810;12.540;2023-02-26T17:32:43;10.27;;;5.60;;
20589;SDS011;10453;50.810;12.540;2023-02-26T17:37:00;10.38;;;6.35;;
20589;SDS011;10453;50.810;12.540;2023-02-26T17:41:23;10.50;;;6.10;;
20589;SDS011;10453;50.810;12.540;2023-02-26T17:45:41;13.38;;;7.35;;
20589;SDS011;10453;50.810;12.540;2023-02-26T17:49:59;13.82;;;6.78;;
20589;SDS011;10453;50.810;12.540;2023-02-26T17:54:16;10.32;;;6.38;;
20589;SDS011;10453;50.810;12.540;2023-02-26T17:58:33;10.43;;;6.85;;
20589;SDS011;10453;50.810;12.540;2023-02-26T18:02:51;12.65;;;6.25;;
20589;SDS011;10453;50.810;12.540;2023-02-26T18:07:09;12.65;;;7.75;;
20589;SDS011;10453;50.810;12.540;2023-02-26T18:11:32;14.93;;;7.47;;
20589;SDS011;10453;50.810;12.540;2023-02-26T18:15:50;10.70;;;6.45;;
20589;SDS011;10453;50.810;12.540;2023-02-26T18:20:10;19.27;;;9.73;;
20589;SDS011;10453;50.810;12.540;2023-02-26T18:24:36;14.25;;;7.13;;
20589;SDS011;10453;50.810;12.540;2023-02-26T18:28:53;12.20;;;6.80;;
20589;SDS011;10453;50.810;12.540;2023-02-26T18:33:11;18.95;;;9.18;;
20589;SDS011;10453;50.810;12.540;2023-02-26T18:37:32;28.65;;;13.65;;
20589;SDS011;10453;50.810;12.540;2023-02-26T18:41:50;27.45;;;16.27;;
20589;SDS011;10453;50.810;12.540;2023-02-26T18:46:08;23.73;;;14.07;;
20589;SDS011;10453;50.810;12.540;2023-02-26T18:50:27;23.10;;;13.05;;
20589;SDS011;10453;50.810;12.540;2023-02-26T18:54:45;27.48;;;15.43;;
20589;SDS011;10453;50.810;12.540;2023-02-26T18:59:02;30.42;;;16.85;;
20589;SDS011;10453;50.810;12.540;2023-02-26T19:07:37;22.95;;;13.70;;
20589;SDS011;10453;50.810;12.540;2023-02-26T19:11:55;21.73;;;12.27;;
20589;SDS011;10453;50.810;12.540;2023-02-26T19:16:14;24.80;;;14.95;;
20589;SDS011;10453;50.810;12.540;2023-02-26T19:20:31;23.13;;;13.57;;
20589;SDS011;10453;50.810;12.540;2023-02-26T19:24:49;17.10;;;11.60;;
20589;SDS011;10453;50.810;12.540;2023-02-26T19:29:07;24.10;;;11.48;;
20589;SDS011;10453;50.810;12.540;2023-02-26T19:33:25;18.70;;;11.98;;
20589;SDS011;10453;50.810;12.540;2023-02-26T19:37:42;16.00;;;9.70;;
20589;SDS011;10453;50.810;12.540;2023-02-26T19:42:00;21.50;;;11.73;;
20589;SDS011;10453;50.810;12.540;2023-02-26T19:46:17;27.70;;;16.05;;
20589;SDS011;10453;50.810;12.540;2023-02-26T19:50:34;17.90;;;10.52;;
20589;SDS011;10453;50.810;12.540;2023-02-26T19:54:52;17.92;;;10.95;;
20589;SDS011;10453;50.810;12.540;2023-02-26T19:59:09;15.88;;;9.15;;
20589;SDS011;10453;50.810;12.540;2023-02-26T20:03:28;19.58;;;10.52;;
20589;SDS011;10453;50.810;12.540;2023-02-26T20:07:46;21.40;;;11.27;;
20589;SDS011;10453;50.810;12.540;2023-02-26T20:16:21;19.23;;;9.52;;
20589;SDS011;10453;50.810;12.540;2023-02-26T20:20:38;16.27;;;8.43;;
20589;SDS011;10453;50.810;12.540;2023-02-26T20:24:57;14.88;;;8.68;;
20589;SDS011;10453;50.810;12.540;2023-02-26T20:29:14;15.10;;;9.20;;
20589;SDS011;10453;50.810;12.540;2023-02-26T20:33:34;16.48;;;9.10;;
20589;SDS011;10453;50.810;12.540;2023-02-26T20:37:53;19.13;;;9.90;;
20589;SDS011;10453;50.810;12.540;2023-02-26T20:42:10;19.70;;;9.27;;
20589;SDS011;10453;50.810;12.540;2023-02-26T20:46:28;18.98;;;10.15;;
20589;SDS011;10453;50.810;12.540;2023-02-26T20:50:46;18.25;;;9.60;;
20589;SDS011;10453;50.810;12.540;2023-02-26T20:55:04;21.25;;;10.23;;
20589;SDS011;10453;50.810;12.540;2023-02-26T20:59:22;19.27;;;10.18;;
20589;SDS011;10453;50.810;12.540;2023-02-26T21:03:39;16.80;;;9.60;;
20589;SDS011;10453;50.810;12.540;2023-02-26T21:07:56;18.80;;;10.60;;
20589;SDS011;10453;50.810;12.540;2023-02-26T21:12:15;19.25;;;9.23;;
20589;SDS011;10453;50.810;12.540;2023-02-26T21:20:50;14.10;;;8.20;;
20589;SDS011;10453;50.810;12.540;2023-02-26T21:25:07;16.77;;;7.90;;
20589;SDS011;10453;50.810;12.540;2023-02-26T21:29:25;12.85;;;7.60;;
20589;SDS011;10453;50.810;12.540;2023-02-26T21:33:42;14.95;;;7.53;;
20589;SDS011;10453;50.810;12.540;2023-02-26T21:37:59;15.40;;;7.60;;
20589;SDS011;10453;50.810;12.540;2023-02-26T21:42:16;10.87;;;6.77;;
20589;SDS011;10453;50.810;12.540;2023-02-26T21:46:34;15.37;;;6.10;;
20589;SDS011;10453;50.810;12.540;2023-02-26T21:50:51;11.48;;;5.15;;
20589;SDS011;10453;50.810;12.540;2023-02-26T21:55:09;11.48;;;5.22;;
20589;SDS011;10453;50.810;12.540;2023-02-26T21:59:27;6.80;;;4.22;;
20589;SDS011;10453;50.810;12.540;2023-02-26T22:03:44;13.80;;;5.38;;
20589;SDS011;10453;50.810;12.540;2023-02-26T22:08:01;13.35;;;5.75;;
20589;SDS011;10453;50.810;12.540;2023-02-26T22:12:18;12.63;;;5.55;;
20589;SDS011;10453;50.810;12.540;2023-02-26T22:16:36;7.90;;;5.15;;
20589;SDS011;10453;50.810;12.540;2023-02-26T22:20:53;12.25;;;4.85;;
20589;SDS011;10453;50.810;12.540;2023-02-26T22:25:10;8.82;;;4.80;;
20589;SDS011;10453;50.810;12.540;2023-02-26T22:29:28;12.13;;;4.30;;
20589;SDS011;10453;50.810;12.540;2023-02-26T22:33:45;9.00;;;4.00;;
20589;SDS011;10453;50.810;12.540;2023-02-26T22:38:02;12.10;;;6.07;;
20589;SDS011;10453;50.810;12.540;2023-02-26T22:42:19;10.43;;;4.80;;
20589;SDS011;10453;50.810;12.540;2023-02-26T22:46:37;6.50;;;4.47;;
20589;SDS011;10453;50.810;12.540;2023-02-26T22:50:54;8.43;;;4.75;;
20589;SDS011;10453;50.810;12.540;2023-02-26T22:55:11;8.80;;;5.18;;
20589;SDS011;10453;50.810;12.540;2023-02-26T23:03:46;12.98;;;5.18;;
20589;SDS011;10453;50.810;12.540;2023-02-26T23:08:03;10.77;;;5.40;;
20589;SDS011;10453;50.810;12.540;2023-02-26T23:12:20;13.68;;;5.40;;
20589;SDS011;10453;50.810;12.540;2023-02-26T23:16:37;8.73;;;4.38;;
20589;SDS011;10453;50.810;12.540;2023-02-26T23:20:54;9.07;;;4.50;;
20589;SDS011;10453;50.810;12.540;2023-02-26T23:25:11;8.68;;;4.85;;
20589;SDS011;10453;50.810;12.540;2023-02-26T23:29:29;13.05;;;5.05;;
20589;SDS011;10453;50.810;12.540;2023-02-26T23:33:46;10.63;;;4.72;;
20589;SDS011;10453;50.810;12.540;2023-02-26T23:38:03;15.20;;;5.30;;
20589;SDS011;10453;50.810;12.540;2023-02-26T23:42:21;10.40;;;4.63;;
20589;SDS011;10453;50.810;12.540;2023-02-26T23:46:38;8.18;;;4.53;;
20589;SDS011;10453;50.810;12.540;2023-02-26T23:50:55;8.85;;;4.20;;
20589;SDS011;10453;50.810;12.540;2023-02-26T23:55:13;8.02;;;4.07;;
20589;SDS011;10453;50.810;12.540;2023-02-26T23:59:30;6.85;;;3.88;;
